createdAt,value
2022-08-11T15:28:13.021Z,30.10
2022-08-11T15:30:58.650Z,30.20
2022-08-11T15:33:45.513Z,30.10
2022-08-11T15:36:33.091Z,30.10
2022-08-11T15:39:03.413Z,30.10
2022-08-11T15:41:59.888Z,30.10
2022-08-11T15:45:05.719Z,30.00
2022-08-11T15:47:42.485Z,30.00
2022-08-11T15:50:14.082Z,29.90
2022-08-11T15:52:53.733Z,29.90
2022-08-11T15:55:23.442Z,29.80
2022-08-11T15:58:10.446Z,29.70
2022-08-11T16:01:03.682Z,29.70
2022-08-11T16:04:07.278Z,29.60
2022-08-11T16:06:36.975Z,29.60
2022-08-11T16:09:08.142Z,29.50
2022-08-11T16:11:46.019Z,29.50
2022-08-11T16:14:32.611Z,29.50
2022-08-11T16:17:00.350Z,29.50
2022-08-11T16:19:32.197Z,29.50
2022-08-11T16:21:59.429Z,29.40
2022-08-11T16:27:02.536Z,29.40
2022-08-11T16:27:23.883Z,29.40
2022-08-11T16:29:51.913Z,29.40
2022-08-11T16:32:22.111Z,29.40
2022-08-11T16:35:10.199Z,29.40
2022-08-11T16:37:56.321Z,29.30
2022-08-11T16:40:24.192Z,29.30
2022-08-11T16:43:11.773Z,29.30
2022-08-11T16:45:59.575Z,29.30
2022-08-11T16:48:37.475Z,29.30
2022-08-11T16:51:10.804Z,29.30
2022-08-11T16:53:46.071Z,29.30
2022-08-11T16:56:42.441Z,29.30
2022-08-11T16:59:15.304Z,29.20
2022-08-11T17:01:48.912Z,29.20
2022-08-11T17:04:37.876Z,29.20
2022-08-11T17:07:42.041Z,29.20
2022-08-11T17:10:51.777Z,29.20
2022-08-11T17:13:39.831Z,29.20
2022-08-11T17:16:12.565Z,29.20
2022-08-11T17:18:46.678Z,29.20
2022-08-11T17:21:26.162Z,29.20
2022-08-11T17:23:55.046Z,29.10
2022-08-11T17:26:27.698Z,29.10
2022-08-11T17:28:57.821Z,29.10
2022-08-11T17:31:45.129Z,29.10
2022-08-11T17:34:31.636Z,29.10
2022-08-11T17:37:00.025Z,29.10
2022-08-11T17:39:29.487Z,29.10
2022-08-11T17:42:16.083Z,29.10
2022-08-11T17:45:02.749Z,29.10
2022-08-11T17:47:49.361Z,29.10
2022-08-11T17:50:18.276Z,29.10
2022-08-11T17:53:04.871Z,29.10
2022-08-11T17:55:53.541Z,29.10
2022-08-11T17:58:40.167Z,29.10
2022-08-11T18:01:09.258Z,29.10
2022-08-11T18:03:39.865Z,29.10
2022-08-11T18:06:12.527Z,29.10
2022-08-11T18:09:01.338Z,29.10
2022-08-11T18:12:10.162Z,29.10
2022-08-11T18:14:55.375Z,29.00
2022-08-11T18:17:41.376Z,29.10
2022-08-11T18:20:27.525Z,29.10
2022-08-11T18:23:14.318Z,29.10
2022-08-11T18:26:02.274Z,29.10
2022-08-11T18:28:51.338Z,29.10
2022-08-11T18:31:38.542Z,29.10
2022-08-11T18:34:27.035Z,29.00
2022-08-11T18:37:29.464Z,29.00
2022-08-11T18:40:17.481Z,29.00
2022-08-11T18:43:05.829Z,29.00
2022-08-11T18:45:58.253Z,29.00
2022-08-11T18:48:54.994Z,29.00
2022-08-11T18:51:41.857Z,29.00
2022-08-11T18:54:29.205Z,29.00
2022-08-11T18:57:15.993Z,29.00
2022-08-11T19:00:02.704Z,29.00
2022-08-11T19:02:50.193Z,29.00
2022-08-11T19:06:35.889Z,29.00
2022-08-11T19:08:46.368Z,29.00
2022-08-11T19:11:32.737Z,29.00
2022-08-11T19:14:20.344Z,29.00
2022-08-11T19:17:07.582Z,29.00
2022-08-11T19:19:54.526Z,29.00
2022-08-11T19:22:41.258Z,29.00
2022-08-11T19:25:27.769Z,29.00
2022-08-11T19:28:16.235Z,29.00
2022-08-11T19:31:02.354Z,29.00
2022-08-11T19:34:03.092Z,28.90
2022-08-11T19:36:54.896Z,29.00
2022-08-11T19:39:40.638Z,28.90
2022-08-11T19:42:27.105Z,29.00
2022-08-11T19:45:13.558Z,28.90
2022-08-11T19:48:27.980Z,28.90
2022-08-11T19:51:06.569Z,28.90
2022-08-11T19:53:53.313Z,28.90
2022-08-11T19:56:39.157Z,28.90
2022-08-11T19:59:26.001Z,28.90
2022-08-11T20:02:14.294Z,28.90
2022-08-11T20:05:01.187Z,28.90
2022-08-11T20:07:47.238Z,28.90
2022-08-11T20:10:35.310Z,28.90
2022-08-11T20:13:21.907Z,28.90
2022-08-11T20:16:08.785Z,28.90
2022-08-11T20:18:55.446Z,28.90
2022-08-11T20:21:41.663Z,29.00
2022-08-11T20:24:27.764Z,29.00
2022-08-11T20:27:24.704Z,29.00
2022-08-11T20:30:12.118Z,28.90
2022-08-11T20:32:59.326Z,29.00
2022-08-11T20:35:45.353Z,28.90
2022-08-11T20:38:32.479Z,28.90
2022-08-11T20:41:18.774Z,28.90
2022-08-11T20:44:09.091Z,28.90
2022-08-11T20:46:57.248Z,28.90
2022-08-11T20:49:52.563Z,28.90
2022-08-11T20:52:47.442Z,28.90
2022-08-11T20:55:46.108Z,28.90
2022-08-11T20:59:13.407Z,28.90
2022-08-11T21:01:44.849Z,28.90
2022-08-11T21:04:32.513Z,28.90
2022-08-11T21:07:28.389Z,28.90
2022-08-11T21:10:23.473Z,28.90
2022-08-11T21:13:25.250Z,28.90
2022-08-11T21:16:25.084Z,29.00
2022-08-11T21:19:15.816Z,29.00
2022-08-11T21:22:03.612Z,29.00
2022-08-11T21:24:50.740Z,29.00
2022-08-11T21:27:37.391Z,29.00
2022-08-11T21:30:23.304Z,29.00
2022-08-11T21:33:08.945Z,29.00
2022-08-11T21:35:55.457Z,29.00
2022-08-11T21:38:40.978Z,29.00
2022-08-11T21:41:28.917Z,29.00
2022-08-11T21:44:15.285Z,29.00
2022-08-11T21:47:01.832Z,29.00
2022-08-11T21:49:48.258Z,29.00
2022-08-11T21:52:34.627Z,29.00
2022-08-11T21:55:20.263Z,29.00
2022-08-11T21:58:06.717Z,28.90
2022-08-11T22:00:52.410Z,29.00
2022-08-11T22:03:49.847Z,29.00
2022-08-11T22:06:36.329Z,28.90
2022-08-11T22:09:22.604Z,28.90
2022-08-11T22:12:30.127Z,28.90
2022-08-11T22:15:14.977Z,28.90
2022-08-11T22:18:00.625Z,28.90
2022-08-11T22:20:46.539Z,28.90
2022-08-11T22:23:35.310Z,28.90
2022-08-11T22:26:22.560Z,28.90
2022-08-11T22:29:08.440Z,28.90
2022-08-11T22:31:55.079Z,28.90
2022-08-11T22:34:52.765Z,28.90
2022-08-11T22:37:40.473Z,28.90
2022-08-11T22:40:27.246Z,28.90
2022-08-11T22:43:12.793Z,28.90
2022-08-11T22:45:58.344Z,28.90
2022-08-11T22:48:47.540Z,28.90
2022-08-11T22:51:34.290Z,28.90
2022-08-11T22:54:20.735Z,28.90
2022-08-11T22:57:06.944Z,28.90
2022-08-11T22:59:53.944Z,28.90
2022-08-11T23:02:40.016Z,28.90
2022-08-11T23:05:26.541Z,28.90
2022-08-11T23:08:13.507Z,28.90
2022-08-11T23:10:59.612Z,28.90
2022-08-11T23:13:45.412Z,28.90
2022-08-11T23:16:30.973Z,28.90
2022-08-11T23:20:06.836Z,28.90
2022-08-11T23:22:23.047Z,28.90
2022-08-11T23:25:23.342Z,28.80
2022-08-11T23:28:08.843Z,28.80
2022-08-11T23:30:54.843Z,28.80
2022-08-11T23:33:41.060Z,28.90
2022-08-11T23:36:34.004Z,28.90
2022-08-11T23:39:32.532Z,28.80
2022-08-11T23:42:18.360Z,28.80
2022-08-11T23:45:07.274Z,28.80
2022-08-11T23:47:57.494Z,28.80
2022-08-11T23:50:43.780Z,28.80
2022-08-11T23:53:29.871Z,28.80
2022-08-11T23:56:16.075Z,28.80
2022-08-11T23:59:01.615Z,28.80
